Flight Track Log - Related Links

Times and Time Zones

All times are in EDT time to prevent confusion due to time zone crossing. See the BAW581 flight status page for this flight to view local times or setup timezone preferences in your user account.

Time Position Orientation Groundspeed Altitude Reporting Facility
EDT Latitude Longitude Course Direction KTS MPH feet Rate Location/Type
Thu 04:49:08 PM 45.6470 8.7310 357° North 162 186 1,300  Level FlightAware ADS-B
Thu 04:49:53 PM 45.6850 8.7310 360° North 201 231 2,900 2,160 Climbing FlightAware ADS-B
Thu 04:50:23 PM 45.7140 8.7310 360° North 234 269 4,000 2,600 Climbing FlightAware ADS-B
Thu 04:50:53 PM 45.7500 8.7260 354° North 273 314 5,500 3,150 Climbing FlightAware ADS-B
Thu 04:51:03 PM 45.7600 8.7130 318° Northwest 278 320 6,100 3,840 Climbing FlightAware ADS-B
Thu 04:51:18 PM 45.7690 8.6860 296° West 284 327 7,100 3,840 Climbing FlightAware ADS-B
Thu 04:52:18 PM 45.7320 8.5900 241° Southwest 300 345 10,900 2,940 Climbing FlightAware ADS-B
Thu 04:52:58 PM 45.6920 8.5200 231° Southwest 353 406 12,000 2,325 Climbing FlightAware ADS-B
Thu 04:53:38 PM 45.6500 8.4460 231° Southwest 369 425 14,000 2,894 Climbing FlightAware ADS-B
Thu 04:54:23 PM 45.6040 8.3640 231° Southwest 377 434 16,100 2,900 Climbing FlightAware ADS-B
Thu 04:54:38 PM 45.5900 8.3290 240° Southwest 376 433 16,900 3,120 Climbing FlightAware ADS-B
Thu 04:54:48 PM 45.5860 8.3060 256° West 374 430 17,400 2,700 Climbing FlightAware ADS-B
Thu 04:55:18 PM 45.5990 8.2340 284° West 382 440 18,700 2,571 Climbing FlightAware ADS-B
Thu 04:55:58 PM 45.6430 8.1540 308° West 389 448 20,400 2,259 Climbing FlightAware ADS-B
Thu 04:56:43 PM 45.6930 8.0630 308° West 402 463 21,900 1,976 Climbing FlightAware ADS-B
Thu 04:57:23 PM 45.7420 7.9790 310° West 412 474 23,200 1,906 Climbing FlightAware ADS-B
Thu 04:58:08 PM 45.8010 7.8830 311° West 423 487 24,600 1,835 Climbing FlightAware ADS-B
Thu 04:58:48 PM 45.8520 7.7980 311° West 432 497 25,800 1,875 Climbing FlightAware ADS-B
Thu 04:59:28 PM 45.9040 7.7100 310° West 432 497 27,100 1,765 Climbing FlightAware ADS-B
Thu 05:00:13 PM 45.9600 7.6160 311° West 438 504 28,300 1,412 Climbing FlightAware ADS-B
Thu 05:00:53 PM 46.0140 7.5260 311° West 446 513 29,100 1,575 Climbing FlightAware ADS-B
Thu 05:01:33 PM 46.0660 7.4380 310° West 441 507 30,400 1,835 Climbing FlightAware ADS-B
Thu 05:02:18 PM 46.1270 7.3350 311° West 439 505 31,700 1,694 Climbing FlightAware ADS-B
Thu 05:02:58 PM 46.1790 7.2460 310° West 438 504 32,800 1,412 Climbing FlightAware ADS-B
Thu 05:03:43 PM 46.2370 7.1480 311° West 444 511 33,700 1,624 Climbing FlightAware ADS-B
Thu 05:04:23 PM 46.2920 7.0550 311° West 432 497 35,100 1,725 Climbing FlightAware ADS-B
Thu 05:05:03 PM 46.3430 6.9680 310° West 432 497 36,000 635 Climbing FlightAware ADS-B
Thu 05:05:48 PM 46.3970 6.8740 310° West 429 494 36,000  Level FlightAware ADS-B
Thu 05:06:28 PM 46.4520 6.7800 310° West 433 498 36,000  Level FlightAware ADS-B
Thu 05:07:13 PM 46.5050 6.6870 310° West 433 498 36,000  Level FlightAware ADS-B
Thu 05:07:53 PM 46.5580 6.5950 310° West 430 495 36,000  Level FlightAware ADS-B
Thu 05:08:33 PM 46.6110 6.5040 310° West 430 495 36,000 60 Level FlightAware ADS-B
Thu 05:09:33 PM 46.6850 6.3750 310° West 435 501 36,100  Climbing FlightAware ADS-B
Thu 05:10:13 PM 46.7360 6.2840 309° West 435 501 36,000 -71 Descending FlightAware ADS-B
Thu 05:10:58 PM 46.7950 6.1810 310° West 433 498 36,000  Level FlightAware ADS-B
Thu 05:11:38 PM 46.8490 6.0840 309° West 431 496 36,000  Level FlightAware ADS-B
Thu 05:12:18 PM 46.9000 5.9960 310° West 432 497 36,000  Level FlightAware ADS-B
Thu 05:13:03 PM 46.9590 5.9100 315° West 434 499 36,000  Level FlightAware ADS-B
Thu 05:13:43 PM 47.0180 5.8230 315° West 432 497 36,000  Level FlightAware ADS-B
Thu 05:14:23 PM 47.0730 5.7420 315° West 432 497 36,000  Level FlightAware ADS-B
Thu 05:15:08 PM 47.1390 5.6460 315° West 432 497 36,000  Level FlightAware ADS-B
Thu 05:15:43 PM 47.1880 5.5730 315° West 432 497 36,000  Level FlightAware ADS-B
Thu 05:16:33 PM 47.2590 5.4700 315° West 433 498 36,000  Level FlightAware ADS-B
Thu 05:17:18 PM 47.3240 5.3740 315° West 434 499 36,000  Level FlightAware ADS-B
Thu 05:17:58 PM 47.3790 5.2910 314° West 431 496 36,000  Level FlightAware ADS-B
Thu 05:18:38 PM 47.4350 5.2080 315° West 422 486 36,000  Level FlightAware ADS-B
Thu 05:19:23 PM 47.4980 5.1140 315° West 424 488 36,000  Level FlightAware ADS-B
Thu 05:20:03 PM 47.5490 5.0380 315° West 424 488 36,000  Level FlightAware ADS-B
Thu 05:20:48 PM 47.6120 4.9430 315° West 424 488 36,000  Level FlightAware ADS-B
Thu 05:21:28 PM 47.6720 4.8590 317° Northwest 431 496 36,000  Level FlightAware ADS-B
Thu 05:22:08 PM 47.7320 4.7900 322° Northwest 433 498 36,000  Level FlightAware ADS-B
Thu 05:22:53 PM 47.8080 4.7040 323° Northwest 433 498 36,000  Level FlightAware ADS-B
Thu 05:23:33 PM 47.8720 4.6320 323° Northwest 433 498 36,000  Level FlightAware ADS-B
Thu 05:24:18 PM 47.9420 4.5520 323° Northwest 432 497 36,000  Level FlightAware ADS-B
Thu 05:24:58 PM 48.0040 4.4820 323° Northwest 431 496 36,000  Level FlightAware ADS-B
Thu 05:25:38 PM 48.0680 4.4090 323° Northwest 432 497 36,000  Level FlightAware ADS-B
Thu 05:26:23 PM 48.1370 4.3290 322° Northwest 432 497 36,000  Level FlightAware ADS-B
Thu 05:27:03 PM 48.2010 4.2560 323° Northwest 430 495 36,000  Level FlightAware ADS-B
Thu 05:27:48 PM 48.2720 4.1730 322° Northwest 429 494 36,000  Level FlightAware ADS-B
Thu 05:28:28 PM 48.3360 4.1000 323° Northwest 429 494 36,000  Level FlightAware ADS-B
Thu 05:29:08 PM 48.3980 4.0260 322° Northwest 428 493 36,000  Level FlightAware ADS-B
Thu 05:29:53 PM 48.4670 3.9460 322° Northwest 427 491 36,000  Level FlightAware ADS-B
Thu 05:30:33 PM 48.5290 3.8740 322° Northwest 427 491 36,000  Level FlightAware ADS-B
Thu 05:31:18 PM 48.5990 3.7910 322° Northwest 425 489 36,000  Level FlightAware ADS-B
Thu 05:31:58 PM 48.6600 3.7190 322° Northwest 425 489 36,000  Level FlightAware ADS-B
Thu 05:32:38 PM 48.7210 3.6460 322° Northwest 424 488 36,000  Level FlightAware ADS-B
Thu 05:33:18 PM 48.7860 3.5700 322° Northwest 425 489 36,000  Level FlightAware ADS-B
Thu 05:33:44 PM 48.8296 3.5176 322° Northwest 425 489 36,000  Level FlightAware ADS-B
Thu 05:34:43 PM 48.9130 3.4180 322° Northwest 424 488 36,000  Level FlightAware ADS-B
Thu 05:35:14 PM 48.9668 3.3534 322° Northwest 424 488 36,000  Level FlightAware ADS-B
Thu 05:35:45 PM 49.0153 3.2950 322° Northwest 424 488 36,000  Level FlightAware ADS-B
Thu 05:36:48 PM 49.1060 3.1860 322° Northwest 425 489 36,000  Level FlightAware ADS-B
Thu 05:37:09 PM 49.1437 3.1399 321° Northwest 36,000  Level FlightAware ADS-B
Thu 05:38:18 PM 49.2460 3.0160 322° Northwest 426 490 36,000 -978 Level FlightAware ADS-B
Thu 05:38:41 PM 49.2869 2.9735 322° Northwest 1 1 34,500  Descending FlightAware UK
Thu 05:38:58 PM 49.3090 2.9390 322° Northwest 425 489 36,000  Climbing FlightAware ADS-B
Thu 05:39:17 PM 49.3397 2.8964 322° Northwest 1 1 34,500 -2,432 Descending FlightAware UK
Thu 05:39:35 PM 49.3680 2.8650 324° Northwest 1 1 34,500 4,286 Level FlightAware UK
Thu 05:39:38 PM 49.3670 2.8680 324° Northwest 424 488 36,000  Climbing FlightAware ADS-B
Thu 05:39:53 PM 49.3953 2.8300 324° Northwest 1 1 34,500 -2,727 Descending FlightAware UK
Thu 05:40:11 PM 49.4230 2.7967 322° Northwest 1 1 34,500 4,500 Level FlightAware UK
Thu 05:40:13 PM 49.4260 2.7951 322° Northwest 425 489 36,000  Climbing FlightAware ADS-B
Thu 05:40:29 PM 49.4505 2.7634 322° Northwest 1 1 34,500 -2,647 Descending FlightAware UK
Thu 05:40:47 PM 49.4750 2.7341 322° Northwest 1 1 34,500 2,647 Level FlightAware UK
Thu 05:41:03 PM 49.4960 2.7080 321° Northwest 420 483 36,000  Climbing FlightAware ADS-B
Thu 05:41:05 PM 49.5024 2.6994 321° Northwest 1 1 34,500 -4,500 Descending FlightAware UK
Thu 05:41:23 PM 49.5294 2.6638 321° Northwest 1 1 34,500  Level FlightAware UK
Thu 05:41:40 PM 49.5559 2.6318 322° Northwest 1 1 34,500 3,600 Level FlightAware UK
Thu 05:41:48 PM 49.5650 2.6230 322° Northwest 416 479 36,000  Climbing FlightAware ADS-B
Thu 05:42:11 PM 49.6014 2.5762 322° Northwest 442 509 34,500  Descending FlightAware UK
Thu 05:42:28 PM 49.6250 2.5490 321° Northwest 414 476 36,000  Climbing FlightAware ADS-B
Thu 05:42:29 PM 49.6282 2.5430 321° Northwest 442 509 34,500 -4,737 Descending FlightAware UK
Thu 05:42:47 PM 49.6551 2.5098 321° Northwest 442 509 34,500  Level FlightAware UK
Thu 05:43:05 PM 49.6820 2.4768 322° Northwest 440 506 34,500 4,286 Level FlightAware UK
Thu 05:43:08 PM 49.6850 2.4740 322° Northwest 411 473 36,000  Climbing FlightAware ADS-B
Thu 05:43:29 PM 49.7175 2.4323 322° Northwest 442 509 34,500 -2,368 Descending FlightAware UK
Thu 05:43:46 PM 49.7436 2.3993 321° Northwest 440 506 34,500 3,750 Level FlightAware UK
Thu 05:43:53 PM 49.7490 2.3940 321° Northwest 410 472 36,000  Climbing FlightAware ADS-B
Thu 05:44:10 PM 49.7786 2.3546 321° Northwest 440 506 34,500 -2,571 Descending FlightAware UK
Thu 05:44:28 PM 49.8049 2.3217 321° Northwest 438 504 34,500 3,913 Level FlightAware UK
Thu 05:44:33 PM 49.8090 2.3180 321° Northwest 410 472 36,000 -250 Climbing FlightAware ADS-B
Thu 05:44:52 PM 49.8401 2.2771 321° Northwest 440 506 34,400 -2,595 Descending FlightAware UK
Thu 05:45:10 PM 49.8669 2.2435 321° Northwest 438 504 34,400 4,571 Level FlightAware UK
Thu 05:45:13 PM 49.8670 2.2440 321° Northwest 408 470 36,000  Climbing FlightAware ADS-B
Thu 05:45:29 PM 49.8928 2.2087 321° Northwest 440 506 34,400 -2,824 Descending FlightAware UK
Thu 05:45:47 PM 49.9159 2.1718 314° West 440 506 34,400 3,310 Level FlightAware UK
Thu 05:45:58 PM 49.9270 2.1590 314° West 404 465 36,000  Climbing FlightAware ADS-B
Thu 05:46:16 PM 49.9566 2.1131 314° West 440 506 34,400 -2,500 Descending FlightAware UK
Thu 05:46:34 PM 49.9809 2.0778 317° Northwest 442 509 34,500 4,364 Climbing FlightAware UK
Thu 05:46:38 PM 49.9840 2.0760 317° Northwest 406 467 36,000  Climbing FlightAware ADS-B
Thu 05:46:58 PM 50.0138 2.0300 317° Northwest 444 511 34,500 -2,368 Descending FlightAware UK
Thu 05:47:16 PM 50.0384 1.9938 317° Northwest 444 511 34,500 3,600 Level FlightAware UK
Thu 05:47:23 PM 50.0450 1.9860 317° Northwest 406 467 36,000  Climbing FlightAware ADS-B
Thu 05:47:40 PM 50.0718 1.9455 317° Northwest 444 511 34,500 -2,571 Descending FlightAware UK
Thu 05:47:58 PM 50.0961 1.9100 317° Northwest 442 509 34,500 3,913 Level FlightAware UK
Thu 05:48:03 PM 50.0990 1.9060 317° Northwest 406 467 36,000  Climbing FlightAware ADS-B
Thu 05:48:22 PM 50.1291 1.8615 317° Northwest 440 506 34,500 -2,432 Descending FlightAware UK
Thu 05:48:40 PM 50.1533 1.8257 317° Northwest 438 504 34,500 4,286 Level FlightAware UK
Thu 05:48:43 PM 50.1530 1.8270 317° Northwest 407 468 36,000 -333 Climbing FlightAware ADS-B
Thu 05:48:58 PM 50.1778 1.7892 317° Northwest 440 506 34,400  Descending FlightAware UK
Thu 05:49:16 PM 50.2010 1.7559 317° Northwest 411 473 36,000  Climbing FlightAware ADS-B
Thu 05:49:34 PM 50.2275 1.7163 317° Northwest 444 511 34,400  Descending FlightAware UK
Thu 05:49:48 PM 50.2456 1.6899 317° Northwest 412 474 36,000 200 Climbing FlightAware ADS-B
Thu 05:50:04 PM 50.2689 1.6546 317° Northwest 444 511 34,500  Descending FlightAware UK
Thu 05:50:19 PM 50.2880 1.6267 317° Northwest 414 476 36,000  Climbing FlightAware ADS-B
Thu 05:50:34 PM 50.3105 1.5929 317° Northwest 444 511 34,500  Descending FlightAware UK
Thu 05:50:51 PM 50.3331 1.5598 317° Northwest 416 479 36,000  Climbing FlightAware ADS-B
Thu 05:51:10 PM 50.3604 1.5185 317° Northwest 444 511 34,500  Descending FlightAware UK
Thu 05:51:24 PM 50.3781 1.4924 317° Northwest 417 480 36,000 -800 Climbing FlightAware ADS-B
Thu 05:51:40 PM 50.4022 1.4558 317° Northwest 446 513 34,100 -4,412 Descending FlightAware UK
Thu 05:51:58 PM 50.4273 1.4184 316° Northwest 440 506 33,500 1,826 Descending FlightAware UK
Thu 05:52:03 PM 50.4327 1.4107 316° Northwest 415 478 34,800 -3,000 Climbing FlightAware ADS-B
Thu 05:52:22 PM 50.4603 1.3691 316° Northwest 446 513 32,300 -3,200 Descending FlightAware UK
Thu 05:52:33 PM 50.4749 1.3473 316° Northwest 419 482 33,200 -3,200 Climbing FlightAware ADS-B
Thu 05:52:52 PM 50.5016 1.3067 316° Northwest 452 520 30,700 -3,188 Descending FlightAware UK
Thu 05:53:05 PM 50.5185 1.2811 316° Northwest 422 486 31,500 -3,000 Climbing FlightAware ADS-B
Thu 05:53:22 PM 50.5437 1.2428 316° Northwest 456 525 29,200 -2,600 Descending FlightAware UK
Thu 05:53:35 PM 50.5607 1.2169 316° Northwest 430 495 30,200 -2,800 Climbing FlightAware ADS-B
Thu 05:53:52 PM 50.5868 1.1771 316° Northwest 460 529 27,800 -2,600 Descending FlightAware UK
Thu 05:54:05 PM 50.6042 1.1513 316° Northwest 437 503 28,900 -2,400 Climbing FlightAware ADS-B
Thu 05:54:22 PM 50.6305 1.1110 316° Northwest 462 532 26,600 -2,600 Descending FlightAware UK
Thu 05:54:35 PM 50.6494 1.0833 316° Northwest 439 505 27,600 -2,400 Climbing FlightAware ADS-B
Thu 05:54:52 PM 50.6746 1.0446 316° Northwest 458 527 25,400 -2,516 Descending FlightAware UK
Thu 05:55:06 PM 50.6932 1.0163 316° Northwest 430 495 26,300 -2,690 Climbing FlightAware ADS-B
Thu 05:55:21 PM 50.7172 0.9797 316° Northwest 442 509 24,100 -2,400 Descending FlightAware UK
Thu 05:55:36 PM 50.7353 0.9516 316° Northwest 422 486 25,100 -2,600 Climbing FlightAware ADS-B
Thu 05:55:51 PM 50.7589 0.9154 316° Northwest 434 499 22,800 -5,455 Descending FlightAware UK
Thu 05:56:09 PM 50.7837 0.8774 316° Northwest 428 493 22,100 343 Descending FlightAware UK
Thu 05:56:26 PM 50.8048 0.8451 316° Northwest 409 471 23,000 -2,500 Climbing FlightAware ADS-B
Thu 05:56:45 PM 50.8324 0.8026 316° Northwest 420 483 20,600 -2,516 Descending FlightAware UK
Thu 05:56:57 PM 50.8463 0.7819 316° Northwest 396 456 21,700 -2,323 Climbing FlightAware ADS-B
Thu 05:57:16 PM 50.8716 0.7424 316° Northwest 414 476 19,400 -2,471 Descending FlightAware UK
Thu 05:57:31 PM 50.8889 0.7153 316° Northwest 384 442 20,300 -2,571 Climbing FlightAware ADS-B
Thu 05:57:51 PM 50.9168 0.6721 316° Northwest 402 463 17,900 -2,516 Descending FlightAware UK
Thu 05:58:02 PM 50.9285 0.6544 316° Northwest 381 438 19,000 -2,600 Climbing FlightAware ADS-B
Thu 05:58:21 PM 50.9545 0.6139 316° Northwest 398 458 16,600 -2,600 Descending FlightAware UK
Thu 05:58:32 PM 50.9659 0.5959 316° Northwest 375 432 17,700 -2,400 Climbing FlightAware ADS-B
Thu 05:58:51 PM 50.9909 0.5572 316° Northwest 384 442 15,400 -2,516 Descending FlightAware UK
Thu 05:59:03 PM 51.0043 0.5371 316° Northwest 362 417 16,400 -2,600 Climbing FlightAware ADS-B
Thu 05:59:21 PM 51.0270 0.5015 316° Northwest 374 430 14,100 -5,000 Descending FlightAware UK
Thu 05:59:39 PM 51.0480 0.4689 316° Northwest 370 426 13,400 2,526 Descending FlightAware UK
Thu 05:59:40 PM 51.0469 0.4704 316° Northwest 354 407 14,900 -1,667 Climbing FlightAware ADS-B
Thu 05:59:57 PM 51.0683 0.4369 316° Northwest 358 412 12,900 -1,235 Descending FlightAware UK
Thu 06:00:14 PM 51.0845 0.4118 316° Northwest 325 374 14,200 -667 Climbing FlightAware ADS-B
Thu 06:00:33 PM 51.1066 0.3778 316° Northwest 326 375 12,500 -400 Descending FlightAware UK
Thu 06:00:44 PM 51.1160 0.3632 316° Northwest 293 337 14,000  Climbing FlightAware ADS-B
Thu 06:01:03 PM 51.1355 0.3336 316° Northwest 302 348 12,500  Descending FlightAware UK
Thu 06:01:17 PM 51.1467 0.3159 316° Northwest 281 323 14,000 -800 Climbing FlightAware ADS-B
Thu 06:01:33 PM 51.1631 0.2907 316° Northwest 300 345 12,100 -1,636 Descending FlightAware UK
Thu 06:01:50 PM 51.1775 0.2680 316° Northwest 279 321 13,100 -1,833 Climbing FlightAware ADS-B
Thu 06:02:09 PM 51.1964 0.2388 316° Northwest 296 341 11,000 -1,548 Descending FlightAware UK
Thu 06:02:21 PM 51.2061 0.2240 316° Northwest 277 319 12,300 -1,400 Climbing FlightAware ADS-B
Thu 06:02:39 PM 51.2242 0.1964 316° Northwest 292 336 10,300 -1,742 Descending FlightAware UK
Thu 06:02:52 PM 51.2345 0.1813 316° Northwest 272 313 11,400 -1,600 Climbing FlightAware ADS-B
Thu 06:03:09 PM 51.2515 0.1553 316° Northwest 288 331 9,500 -1,400 Descending FlightAware UK
Thu 06:03:22 PM 51.2620 0.1395 316° Northwest 267 307 10,700 -1,400 Climbing FlightAware ADS-B
Thu 06:03:39 PM 51.2781 0.1145 316° Northwest 286 329 8,800 -1,333 Descending FlightAware UK
Thu 06:03:49 PM 51.2857 0.1035 316° Northwest 261 300 10,100 2,880 Climbing FlightAware ADS-B
Thu 06:04:04 PM 51.2980 0.0848 316° Northwest 252 290 10,000 -600 Descending FlightAware ADS-B
Thu 06:04:19 PM 51.3111 0.0652 317° Northwest 243 280 9,800 -692 Descending FlightAware ADS-B
Thu 06:04:30 PM 51.3194 0.0523 316° Northwest 236 272 9,700 -750 Descending FlightAware ADS-B
Thu 06:04:35 PM 51.3233 0.0456 313° West 232 267 9,600 -750 Descending FlightAware ADS-B
Thu 06:04:38 PM 51.3254 0.0408 305° West 229 264 9,600  Level FlightAware ADS-B
Thu 06:04:42 PM 51.3273 0.0359 302° West 226 260 9,600 -750 Level FlightAware ADS-B
Thu 06:04:46 PM 51.3288 0.0298 292° West 224 258 9,500 -750 Descending FlightAware ADS-B
Thu 06:04:50 PM 51.3296 0.0236 282° West 221 254 9,500 -857 Level FlightAware ADS-B
Thu 06:04:53 PM 51.3298 0.0180 273° West 219 252 9,400 -800 Descending FlightAware ADS-B
Thu 06:05:05 PM 51.3294 -0.0007 268° West 212 244 9,300 -522 Descending FlightAware ADS-B
Thu 06:05:16 PM 51.3289 -0.0185 267° West 207 238 9,200 -571 Descending FlightAware ADS-B
Thu 06:05:26 PM 51.3285 -0.0323 267° West 203 234 9,100 -480 Descending FlightAware ADS-B
Thu 06:05:41 PM 51.3278 -0.0546 267° West 193 222 9,000 -400 Descending FlightAware ADS-B
Thu 06:05:56 PM 51.3271 -0.0757 267° West 185 213 8,900 -692 Descending FlightAware ADS-B
Thu 06:06:07 PM 51.3266 -0.0905 267° West 186 214 8,700 -750 Descending FlightAware ADS-B
Thu 06:06:20 PM 51.3259 -0.1091 267° West 184 212 8,600 -706 Descending FlightAware ADS-B
Thu 06:06:24 PM 51.3258 -0.1142 268° West 182 209 8,500 -750 Descending FlightAware ADS-B
Thu 06:06:28 PM 51.3261 -0.1192 275° West 180 207 8,500 -857 Level FlightAware ADS-B
Thu 06:06:31 PM 51.3268 -0.1232 286° West 179 206 8,400 -1,000 Descending FlightAware ADS-B
Thu 06:06:34 PM 51.3277 -0.1268 292° West 179 206 8,400 -545 Level FlightAware ADS-B
Thu 06:06:42 PM 51.3314 -0.1347 307° West 181 208 8,300 -1,091 Descending FlightAware ADS-B
Thu 06:06:45 PM 51.3336 -0.1372 325° Northwest 181 208 8,200 -1,000 Descending FlightAware ADS-B
Thu 06:06:48 PM 51.3364 -0.1396 331° Northwest 184 212 8,200 -857 Level FlightAware ADS-B
Thu 06:06:52 PM 51.3395 -0.1414 341° North 186 214 8,100 -750 Descending FlightAware ADS-B
Thu 06:06:56 PM 51.3423 -0.1419 353° North 191 220 8,100 -750 Level FlightAware ADS-B
Thu 06:07:00 PM 51.3461 -0.1416 North 195 224 8,000 -1,333 Descending FlightAware ADS-B
Thu 06:07:05 PM 51.3508 -0.1398 13° North 199 229 7,900 -1,500 Descending FlightAware ADS-B
Thu 06:07:08 PM 51.3535 -0.1379 24° Northeast 204 235 7,800 -857 Descending FlightAware ADS-B
Thu 06:07:12 PM 51.3565 -0.1350 32° Northeast 208 239 7,800 -667 Level FlightAware ADS-B
Thu 06:07:17 PM 51.3599 -0.1302 41° Northeast 213 245 7,700 -1,333 Descending FlightAware ADS-B
Thu 06:07:21 PM 51.3624 -0.1252 51° Northeast 217 250 7,600 -857 Descending FlightAware ADS-B
Thu 06:07:24 PM 51.3644 -0.1202 58° Northeast 219 252 7,600 -750 Level FlightAware ADS-B
Thu 06:07:29 PM 51.3661 -0.1126 70° East 222 255 7,500 -1,333 Descending FlightAware ADS-B
Thu 06:07:33 PM 51.3669 -0.1061 79° East 224 258 7,400 -750 Descending FlightAware ADS-B
Thu 06:07:37 PM 51.3675 -0.0998 81° East 225 259 7,400 -400 Level FlightAware ADS-B
Thu 06:07:48 PM 51.3677 -0.0823 89° East 223 257 7,300 -818 Descending FlightAware ADS-B
Thu 06:07:59 PM 51.3677 -0.0636 90° East 221 254 7,100 -1,125 Descending FlightAware ADS-B
Thu 06:08:04 PM 51.3682 -0.0555 84° East 219 252 7,000 -1,500 Descending FlightAware ADS-B
Thu 06:08:07 PM 51.3689 -0.0509 76° East 218 251 6,900 -857 Descending FlightAware ADS-B
Thu 06:08:11 PM 51.3700 -0.0457 71° East 214 246 6,900 -857 Level FlightAware ADS-B
Thu 06:08:14 PM 51.3715 -0.0417 59° Northeast 213 245 6,800 -1,500 Descending FlightAware ADS-B
Thu 06:08:19 PM 51.3746 -0.0350 53° Northeast 207 238 6,700 -1,200 Descending FlightAware ADS-B
Thu 06:08:24 PM 51.3784 -0.0301 39° Northeast 203 234 6,600 -1,500 Descending FlightAware ADS-B
Thu 06:08:27 PM 51.3811 -0.0276 29° Northeast 198 228 6,500 -1,714 Descending FlightAware ADS-B
Thu 06:08:31 PM 51.3837 -0.0258 23° Northeast 194 223 6,400 -1,714 Descending FlightAware ADS-B
Thu 06:08:34 PM 51.3866 -0.0247 13° North 191 220 6,300 -857 Descending FlightAware ADS-B
Thu 06:08:38 PM 51.3899 -0.0238 10° North 189 217 6,300 -1,000 Level FlightAware ADS-B
Thu 06:08:52 PM 51.4020 -0.0215 North 189 217 6,000 -1,448 Descending FlightAware ADS-B
Thu 06:09:07 PM 51.4155 -0.0188 North 191 220 5,600 -1,579 Descending FlightAware ADS-B
Thu 06:09:11 PM 51.4186 -0.0185 North 190 219 5,500 -1,500 Descending FlightAware ADS-B
Thu 06:09:15 PM 51.4226 -0.0186 358° North 184 212 5,400 -750 Descending FlightAware ADS-B
Thu 06:09:19 PM 51.4252 -0.0194 350° North 180 207 5,400 -857 Level FlightAware ADS-B
Thu 06:09:22 PM 51.4279 -0.0207 343° North 174 200 5,300 -2,000 Descending FlightAware ADS-B
Thu 06:09:25 PM 51.4302 -0.0229 328° Northwest 170 196 5,200 -1,000 Descending FlightAware ADS-B
Thu 06:09:28 PM 51.4321 -0.0253 323° Northwest 168 193 5,200 -1,200 Level FlightAware ADS-B
Thu 06:09:35 PM 51.4352 -0.0313 310° West 163 188 5,000 -1,263 Descending FlightAware ADS-B
Thu 06:09:47 PM 51.4400 -0.0433 303° West 162 186 4,800 -1,111 Descending FlightAware ADS-B
Thu 06:10:02 PM 51.4464 -0.0589 303° West 161 185 4,500 -1,161 Descending FlightAware ADS-B
Thu 06:10:18 PM 51.4532 -0.0745 305° West 158 182 4,200 -4,065 Descending FlightAware ADS-B
Thu 06:10:33 PM 51.4598 -0.0907 305° West 186 214 2,400 -947 Descending FlightAware UK
Thu 06:10:37 PM 51.4608 -0.0927 305° West 158 182 3,900 3,789 Climbing FlightAware ADS-B
Thu 06:10:52 PM 51.4669 -0.1070 304° West 156 180 3,600 -3,750 Descending FlightAware ADS-B
Thu 06:11:09 PM 51.4744 -0.1254 304° West 184 212 1,900 -545 Descending FlightAware UK
Thu 06:11:14 PM 51.4750 -0.1281 304° West 149 171 3,400 10,000 Climbing FlightAware ADS-B
Thu 06:11:18 PM 51.4759 -0.1321 290° West 148 170 3,400 -500 Level FlightAware ADS-B
Thu 06:11:26 PM 51.4770 -0.1411 281° West 146 168 3,300 -500 Descending FlightAware ADS-B
Thu 06:11:42 PM 51.4777 -0.1577 274° West 134 154 3,200 -3,484 Descending FlightAware ADS-B
Thu 06:11:57 PM 51.4783 -0.1740 274° West 168 193 1,500 -375 Descending FlightAware UK
Thu 06:11:58 PM 51.4782 -0.1731 274° West 129 148 3,100 6,429 Climbing FlightAware ADS-B
Thu 06:12:11 PM 51.4782 -0.1854 270° West 126 145 3,000 -414 Descending FlightAware ADS-B
Thu 06:12:27 PM 51.4782 -0.1997 270° West 127 146 2,900 -545 Descending FlightAware ADS-B
Thu 06:12:33 PM 51.4782 -0.2058 270° West 126 145 2,800 -818 Descending FlightAware ADS-B
Thu 06:12:49 PM 51.4783 -0.2208 271° West 127 146 2,600 -686 Descending FlightAware ADS-B
Thu 06:13:08 PM 51.4781 -0.2381 269° West 126 145 2,400 -621 Descending FlightAware ADS-B
Thu 06:13:18 PM 51.4781 -0.2475 270° West 127 146 2,300 -4,560 Descending FlightAware ADS-B
Thu 06:13:33 PM 51.4780 -0.2636 270° West 160 184 500 -706 Descending FlightAware UK
Thu 06:13:35 PM 51.4780 -0.2641 270° West 131 151 2,100 -667 Climbing FlightAware ADS-B
Thu 06:13:51 PM 51.4780 -0.2808 270° West 164 189 300 -3,529 Descending FlightAware UK
Thu 06:14:09 PM 51.4779 -0.2982 270° West 164 189 100 2,438 Descending FlightAware UK
Thu 06:14:23 PM 51.4780 -0.3030 270° West 132 152 1,600 1,304 Climbing FlightAware ADS-B
Thu 06:14:55 PM 51.4780 -0.3425 270° West 130 150 1,100 -706 Descending FlightAware ADS-B
Thu 06:15:48 PM 51.4780 -0.3830 270° West 117 135 600 -618 Descending FlightAware ADS-B
Thu 06:16:03 PM 51.4780 -0.3970 270° West 115 132 400 -667 Descending FlightAware ADS-B
Thu 06:16:33 PM 51.4780 -0.4230 270° West 115 132 100 -327 Descending FlightAware ADS-B
Thu 06:16:58 PM 51.4780 -0.4280 270° West 117 135 100  Level FlightAware ADS-B
Thu 06:17:28 PM 51.4770 -0.4490 266° West 117 135 -200 Descending FlightAware ADS-B

Login

Don't have an account? Register now (free) for customized features, flight alerts, and more!